• Join FlightAware (Why Join?)
  • Login
  • US Flag 
05:33PM EST


 

Airport Tracker/Info


-or-


 

Live Flight TrackerFlight Track Log ✈ FIN666 ✈ 30-Oct-2013 ✈ EKCH / CPH - EFHK / HEL

Flight Track Log - Related Links

Times and Time Zones

All times are in EDT time to prevent confusion due to time zone crossing. See the FIN666 flight status page for this flight to view local times or setup timezone preferences in your user account.

Time Position Orientation Groundspeed Altitude Reporting Facility
EDT Latitude Longitude Course Direction KTS MPH feet Rate Location/Type
08:21AM 55.9164 13.2747 49° Northeast  Level Estimated
08:22AM 55.9905 13.4309 50° Northeast  Level Estimated
08:23AM 56.0644 13.5877 50° Northeast  Level Estimated
08:24AM 56.1381 13.7451 50° Northeast  Level Estimated
08:25AM 56.2149 13.9101 50° Northeast  Level Estimated
08:26AM 56.2915 14.0759 50° Northeast  Level Estimated
08:27AM 56.3679 14.2423 50° Northeast  Level Estimated
08:28AM 56.4440 14.4093 50° Northeast  Level Estimated
08:29AM 56.5200 14.5771 51° Northeast  Level Estimated
08:30AM 56.5956 14.7455 51° Northeast  Level Estimated
08:31AM 56.6711 14.9146 51° Northeast  Level Estimated
08:32AM 56.7463 15.0843 51° Northeast  Level Estimated
08:33AM 56.8213 15.2548 51° Northeast  Level Estimated
08:34AM 56.8961 15.4259 51° Northeast  Level Estimated
08:35AM 56.9706 15.5977 51° Northeast  Level Estimated
08:36AM 57.0449 15.7702 52° Northeast  Level Estimated
08:37AM 57.1190 15.9434 52° Northeast  Level Estimated
08:38AM 57.1928 16.1173 52° Northeast  Level Estimated
08:39AM 57.2664 16.2918 52° Northeast  Level Estimated
08:40AM 57.3397 16.4671 52° Northeast  Level Estimated
08:41AM 57.4128 16.6431 52° Northeast  Level Estimated
08:42AM 57.4857 16.8197 52° Northeast  Level Estimated
08:43AM 57.5583 16.9971 53° Northeast  Level Estimated
08:44AM 57.6306 17.1752 53° Northeast  Level Estimated
08:45AM 57.7027 17.3540 53° Northeast  Level Estimated
08:46AM 57.7746 17.5335 53° Northeast  Level Estimated
08:47AM 57.8462 17.7137 53° Northeast  Level Estimated
08:48AM 57.9175 17.8947 53° Northeast  Level Estimated
08:49AM 57.9886 18.0763 54° Northeast  Level Estimated
08:50AM 58.0594 18.2587 54° Northeast  Level Estimated
08:51AM 58.1299 18.4418 54° Northeast  Level Estimated
08:52AM 58.2002 18.6257 54° Northeast  Level Estimated
08:53AM 58.2702 18.8102 54° Northeast  Level Estimated
08:54AM 58.3400 18.9955 54° Northeast  Level Estimated
08:55AM 58.4095 19.1815 54° Northeast  Level Estimated
08:56AM 58.4787 19.3683 55° Northeast  Level Estimated
08:57AM 58.5476 19.5557 55° Northeast  Level Estimated
08:58AM 58.6163 19.7440 55° Northeast  Level Estimated
08:59AM 58.6847 19.9329 55° Northeast  Level Estimated
09:00AM 58.7528 20.1226 55° Northeast  Level Estimated
09:01AM 58.8207 20.3131 55° Northeast  Level Estimated
09:02AM 58.8882 20.5043 56° Northeast  Level Estimated
09:03AM 58.9555 20.6962 56° Northeast  Level Estimated
09:04AM 59.0225 20.8889 56° Northeast  Level Estimated
09:05AM 59.0892 21.0823 56° Northeast  Level Estimated
09:06AM 59.1556 21.2765 56° Northeast  Level Estimated
09:07AM 59.2217 21.4715 56° Northeast  Level Estimated
09:08AM 59.2876 21.6672 57° Northeast  Level Estimated
09:09AM 59.3531 21.8636 57° Northeast  Level Estimated
09:10AM 59.4183 22.0609 57° Northeast  Level Estimated
09:11AM 59.4833 22.2589 57° Northeast  Level Estimated
09:12AM 59.5479 22.4576 57° Northeast  Level Estimated
09:13AM 59.6123 22.6571 57° Northeast  Level Estimated
09:14AM 59.6763 22.8573 58° Northeast  Level Estimated
09:15AM 59.7400 23.0584 58° Northeast  Level Estimated
09:16AM 59.8034 23.2602 58° Northeast  Level Estimated
09:17AM 59.8665 23.4627 58° Northeast  Level Estimated
09:18AM 59.9293 23.6661 58° Northeast  Level Estimated
09:19AM 59.9918 23.8702 58° Northeast  Level Estimated
09:20AM 60.0540 24.0750 59° Northeast  Level Estimated
09:21AM 60.1158 24.2807 59° Northeast  Level Estimated
09:22AM 60.1774 24.4871 59° Northeast  Level Estimated
09:23AM 60.2386 24.6943 59° Northeast  Level Estimated
09:24AM 60.2994 24.9022 59° Northeast  Level Estimated
09:25AM 60.3172 24.9633 60° Northeast  Level Estimated
09:26AM 60.3172 24.9633 37° Northeast  Level Estimated
09:27AM 60.3172 24.9633 37° Northeast  Level Estimated
09:28AM 60.3172 24.9633 37° Northeast  Level Estimated
09:29AM 60.3172 24.9633 37° Northeast  Level Estimated
09:30AM 60.3172 24.9633 37° Northeast  Level Estimated
09:31AM 60.3172 24.9633 37° Northeast  Level Estimated
09:32AM 60.3172 24.9633 37° Northeast  Level Estimated
09:33AM 60.3172 24.9633 37° Northeast  Level Estimated
09:34AM 60.3172 24.9633 37° Northeast  Level Estimated
09:35AM 60.3172 24.9633 37° Northeast  Level Estimated
09:36AM 60.3172 24.9633 37° Northeast  Level Estimated
09:37AM 60.3172 24.9633 37° Northeast  Level Estimated
09:38AM 60.3172 24.9633 37° Northeast  Level Estimated